OAL862 LGKP-LGRP
Flight info
| Callsign | OAL862 |
|---|---|
| Flight time | 0h 32m |
| Altitude | 11000 |
| Route | ROXOL |
| Aircraft | AT76/M-V/N |
Departure
| Time | 2026-05-07 08:06 |
|---|---|
| Airport | Karpathos Airport (LGKP) |
Arrival
| Time | 2026-05-07 08:38 |
|---|---|
| Airport | Rhodes International Airport "Diagoras" (LGRP) |
| Time | Latitude | Longitude | Altitude | Speed | Heading |
|---|---|---|---|---|---|
| 2026-05-07 07:21 | 35.42612 | 27.14784 | 55 ft | 0 kts | 314° |
| 2026-05-07 07:59 | 35.42623 | 27.14769 | 51 ft | 5 kts | 311° |
| 2026-05-07 08:00 | 35.42634 | 27.14711 | 55 ft | 8 kts | 262° |
| 2026-05-07 08:00 | 35.42596 | 27.14690 | 51 ft | 6 kts | 168° |
| 2026-05-07 08:00 | 35.42560 | 27.14712 | 51 ft | 6 kts | 133° |
| 2026-05-07 08:00 | 35.42526 | 27.14755 | 50 ft | 8 kts | 133° |
| 2026-05-07 08:01 | 35.42483 | 27.14810 | 50 ft | 10 kts | 134° |
| 2026-05-07 08:01 | 35.42434 | 27.14872 | 55 ft | 11 kts | 134° |
| 2026-05-07 08:01 | 35.42382 | 27.14938 | 50 ft | 11 kts | 135° |
| 2026-05-07 08:01 | 35.42326 | 27.15006 | 53 ft | 11 kts | 135° |
| 2026-05-07 08:02 | 35.42270 | 27.15074 | 53 ft | 12 kts | 136° |
| 2026-05-07 08:02 | 35.42195 | 27.15093 | 54 ft | 12 kts | 177° |
| 2026-05-07 08:02 | 35.42113 | 27.15099 | 51 ft | 12 kts | 177° |
| 2026-05-07 08:02 | 35.42029 | 27.15104 | 51 ft | 12 kts | 176° |
| 2026-05-07 08:03 | 35.41944 | 27.15156 | 55 ft | 18 kts | 127° |
| 2026-05-07 08:03 | 35.41880 | 27.15276 | 53 ft | 16 kts | 121° |
| 2026-05-07 08:03 | 35.41821 | 27.15388 | 51 ft | 15 kts | 124° |
| 2026-05-07 08:03 | 35.41761 | 27.15490 | 53 ft | 14 kts | 124° |
| 2026-05-07 08:04 | 35.41704 | 27.15589 | 54 ft | 14 kts | 129° |
| 2026-05-07 08:04 | 35.41621 | 27.15623 | 56 ft | 13 kts | 195° |
| 2026-05-07 08:04 | 35.41556 | 27.15569 | 55 ft | 7 kts | 278° |
| 2026-05-07 08:04 | 35.41568 | 27.15542 | 56 ft | 0 kts | 306° |
| 2026-05-07 08:05 | 35.41646 | 27.15408 | 56 ft | 49 kts | 303° |
| 2026-05-07 08:05 | 35.41955 | 27.14859 | 51 ft | 107 kts | 304° |
| 2026-05-07 08:05 | 35.42446 | 27.13981 | 217 ft | 134 kts | 303° |
| 2026-05-07 08:06 | 35.42955 | 27.13032 | 744 ft | 133 kts | 311° |
| 2026-05-07 08:06 | 35.43536 | 27.12148 | 1311 ft | 133 kts | 306° |
| 2026-05-07 08:06 | 35.44091 | 27.11177 | 1517 ft | 152 kts | 304° |
| 2026-05-07 08:06 | 35.44741 | 27.10007 | 1597 ft | 177 kts | 304° |
| 2026-05-07 08:07 | 35.45426 | 27.08733 | 2065 ft | 179 kts | 303° |
| 2026-05-07 08:07 | 35.46122 | 27.07463 | 2454 ft | 179 kts | 304° |
| 2026-05-07 08:07 | 35.46824 | 27.06203 | 2833 ft | 179 kts | 304° |
| 2026-05-07 08:07 | 35.47522 | 27.04970 | 3211 ft | 178 kts | 306° |
| 2026-05-07 08:08 | 35.48232 | 27.03722 | 3583 ft | 178 kts | 306° |
| 2026-05-07 08:08 | 35.48941 | 27.02474 | 3966 ft | 178 kts | 306° |
| 2026-05-07 08:08 | 35.49655 | 27.01225 | 4351 ft | 178 kts | 306° |
| 2026-05-07 08:08 | 35.50367 | 26.99975 | 4726 ft | 178 kts | 307° |
| 2026-05-07 08:09 | 35.51078 | 26.98729 | 5106 ft | 178 kts | 307° |
| 2026-05-07 08:09 | 35.51793 | 26.97476 | 5449 ft | 180 kts | 307° |
| 2026-05-07 08:09 | 35.52513 | 26.96214 | 5789 ft | 181 kts | 307° |
| 2026-05-07 08:09 | 35.53237 | 26.94951 | 6121 ft | 180 kts | 310° |
| 2026-05-07 08:10 | 35.54264 | 26.94169 | 6392 ft | 178 kts | 355° |
| 2026-05-07 08:10 | 35.55417 | 26.94636 | 6689 ft | 182 kts | 42° |
| 2026-05-07 08:10 | 35.55934 | 26.96025 | 6979 ft | 189 kts | 82° |
| 2026-05-07 08:10 | 35.56228 | 26.97573 | 7223 ft | 185 kts | 57° |
| 2026-05-07 08:11 | 35.56887 | 26.98946 | 7458 ft | 188 kts | 59° |
| 2026-05-07 08:11 | 35.57472 | 27.00390 | 7758 ft | 190 kts | 61° |
| 2026-05-07 08:11 | 35.58035 | 27.01862 | 8054 ft | 191 kts | 61° |
| 2026-05-07 08:11 | 35.58603 | 27.03338 | 8346 ft | 192 kts | 61° |
| 2026-05-07 08:12 | 35.59169 | 27.04807 | 8638 ft | 193 kts | 60° |
| 2026-05-07 08:12 | 35.59753 | 27.06301 | 8946 ft | 195 kts | 61° |
| 2026-05-07 08:12 | 35.60344 | 27.07804 | 9318 ft | 196 kts | 60° |
| 2026-05-07 08:12 | 35.60948 | 27.09314 | 9647 ft | 197 kts | 60° |
| 2026-05-07 08:13 | 35.61555 | 27.10839 | 9977 ft | 198 kts | 60° |
| 2026-05-07 08:13 | 35.62153 | 27.12344 | 10274 ft | 199 kts | 59° |
| 2026-05-07 08:13 | 35.62775 | 27.13872 | 10556 ft | 200 kts | 58° |
| 2026-05-07 08:13 | 35.63405 | 27.15407 | 10826 ft | 203 kts | 58° |
| 2026-05-07 08:14 | 35.64057 | 27.16987 | 10929 ft | 212 kts | 59° |
| 2026-05-07 08:14 | 35.64726 | 27.18653 | 10968 ft | 223 kts | 59° |
| 2026-05-07 08:14 | 35.65422 | 27.20400 | 10986 ft | 232 kts | 60° |
| 2026-05-07 08:14 | 35.66145 | 27.22213 | 10997 ft | 240 kts | 60° |
| 2026-05-07 08:15 | 35.66888 | 27.24080 | 10999 ft | 246 kts | 60° |
| 2026-05-07 08:15 | 35.67645 | 27.25985 | 11001 ft | 250 kts | 60° |
| 2026-05-07 08:15 | 35.68413 | 27.27926 | 11006 ft | 254 kts | 60° |
| 2026-05-07 08:15 | 35.69191 | 27.29889 | 11006 ft | 256 kts | 60° |
| 2026-05-07 08:16 | 35.69977 | 27.31870 | 11001 ft | 258 kts | 60° |
| 2026-05-07 08:16 | 35.70766 | 27.33864 | 11001 ft | 260 kts | 60° |
| 2026-05-07 08:16 | 35.71561 | 27.35869 | 11001 ft | 260 kts | 60° |
| 2026-05-07 08:16 | 35.72344 | 27.37846 | 10999 ft | 261 kts | 60° |
| 2026-05-07 08:17 | 35.73137 | 27.39855 | 11004 ft | 261 kts | 60° |
| 2026-05-07 08:17 | 35.73932 | 27.41861 | 11008 ft | 261 kts | 60° |
| 2026-05-07 08:17 | 35.74731 | 27.43868 | 11000 ft | 261 kts | 60° |
| 2026-05-07 08:17 | 35.75523 | 27.45878 | 11001 ft | 261 kts | 60° |
| 2026-05-07 08:18 | 35.76317 | 27.47885 | 11000 ft | 261 kts | 60° |
| 2026-05-07 08:18 | 35.77127 | 27.49881 | 11000 ft | 258 kts | 56° |
| 2026-05-07 08:18 | 35.78311 | 27.51473 | 11002 ft | 250 kts | 36° |
| 2026-05-07 08:18 | 35.79707 | 27.52745 | 11002 ft | 249 kts | 31° |
| 2026-05-07 08:19 | 35.81128 | 27.53922 | 11002 ft | 249 kts | 31° |
| 2026-05-07 08:19 | 35.82572 | 27.55114 | 11001 ft | 250 kts | 31° |
| 2026-05-07 08:19 | 35.84001 | 27.56342 | 11002 ft | 251 kts | 32° |
| 2026-05-07 08:19 | 35.85417 | 27.57601 | 11000 ft | 252 kts | 33° |
| 2026-05-07 08:20 | 35.86836 | 27.58864 | 10999 ft | 252 kts | 33° |
| 2026-05-07 08:20 | 35.88261 | 27.60130 | 11002 ft | 252 kts | 33° |
| 2026-05-07 08:20 | 35.89683 | 27.61394 | 11000 ft | 252 kts | 33° |
| 2026-05-07 08:20 | 35.91108 | 27.62661 | 10999 ft | 252 kts | 33° |
| 2026-05-07 08:21 | 35.92531 | 27.63926 | 10999 ft | 252 kts | 32° |
| 2026-05-07 08:21 | 35.93940 | 27.65181 | 11000 ft | 252 kts | 32° |
| 2026-05-07 08:21 | 35.95362 | 27.66447 | 11002 ft | 252 kts | 32° |
| 2026-05-07 08:21 | 35.96786 | 27.67715 | 11001 ft | 252 kts | 32° |
| 2026-05-07 08:22 | 35.98212 | 27.68985 | 10999 ft | 253 kts | 32° |
| 2026-05-07 08:22 | 35.99635 | 27.70253 | 11000 ft | 253 kts | 33° |
| 2026-05-07 08:22 | 36.01078 | 27.71538 | 10818 ft | 259 kts | 33° |
| 2026-05-07 08:22 | 36.02546 | 27.72850 | 10566 ft | 260 kts | 33° |
| 2026-05-07 08:23 | 36.04015 | 27.74159 | 10302 ft | 261 kts | 33° |
| 2026-05-07 08:23 | 36.05494 | 27.75481 | 10044 ft | 262 kts | 33° |
| 2026-05-07 08:23 | 36.06969 | 27.76799 | 9803 ft | 262 kts | 33° |
| 2026-05-07 08:23 | 36.08453 | 27.78125 | 9509 ft | 263 kts | 33° |
| 2026-05-07 08:24 | 36.09940 | 27.79454 | 9235 ft | 264 kts | 34° |
| 2026-05-07 08:24 | 36.11431 | 27.80789 | 8956 ft | 265 kts | 34° |
| 2026-05-07 08:24 | 36.12740 | 27.81956 | 8694 ft | 265 kts | 34° |
| 2026-05-07 08:24 | 36.14230 | 27.83287 | 8421 ft | 265 kts | 34° |
| 2026-05-07 08:25 | 36.15728 | 27.84607 | 8141 ft | 262 kts | 31° |
| 2026-05-07 08:25 | 36.17455 | 27.85230 | 7878 ft | 259 kts | 1° |
| 2026-05-07 08:25 | 36.19250 | 27.85049 | 7576 ft | 259 kts | 349° |
| 2026-05-07 08:25 | 36.20991 | 27.84493 | 7342 ft | 259 kts | 343° |
| 2026-05-07 08:26 | 36.24297 | 27.82826 | 6849 ft | 259 kts | 324° |
| 2026-05-07 08:26 | 36.25676 | 27.81392 | 6600 ft | 260 kts | 319° |
| 2026-05-07 08:26 | 36.27012 | 27.79897 | 6372 ft | 254 kts | 325° |
| 2026-05-07 08:27 | 36.28486 | 27.79045 | 6057 ft | 219 kts | 340° |
| 2026-05-07 08:27 | 36.29872 | 27.78450 | 5671 ft | 203 kts | 343° |
| 2026-05-07 08:27 | 36.31187 | 27.78130 | 5285 ft | 186 kts | 8° |
| 2026-05-07 08:27 | 36.32258 | 27.78883 | 4919 ft | 179 kts | 54° |
| 2026-05-07 08:28 | 36.32663 | 27.80289 | 4539 ft | 171 kts | 76° |
| 2026-05-07 08:28 | 36.32936 | 27.81705 | 4158 ft | 170 kts | 75° |
| 2026-05-07 08:28 | 36.33230 | 27.83114 | 3799 ft | 168 kts | 74° |
| 2026-05-07 08:28 | 36.33539 | 27.84496 | 3433 ft | 164 kts | 72° |
| 2026-05-07 08:29 | 36.33874 | 27.85820 | 3070 ft | 158 kts | 70° |
| 2026-05-07 08:29 | 36.34223 | 27.87085 | 2740 ft | 152 kts | 69° |
| 2026-05-07 08:29 | 36.34575 | 27.88307 | 2421 ft | 147 kts | 69° |
| 2026-05-07 08:29 | 36.34918 | 27.89469 | 2196 ft | 138 kts | 69° |
| 2026-05-07 08:30 | 36.35238 | 27.90536 | 2088 ft | 129 kts | 68° |
| 2026-05-07 08:30 | 36.35579 | 27.91601 | 2049 ft | 138 kts | 67° |
| 2026-05-07 08:30 | 36.35929 | 27.92718 | 2031 ft | 140 kts | 68° |
| 2026-05-07 08:30 | 36.36275 | 27.93852 | 2022 ft | 141 kts | 68° |
| 2026-05-07 08:31 | 36.36630 | 27.95018 | 1885 ft | 149 kts | 69° |
| 2026-05-07 08:31 | 36.36977 | 27.96185 | 1704 ft | 138 kts | 69° |
| 2026-05-07 08:31 | 36.37297 | 27.97272 | 1519 ft | 131 kts | 69° |
| 2026-05-07 08:31 | 36.37600 | 27.98284 | 1484 ft | 124 kts | 68° |
| 2026-05-07 08:32 | 36.37906 | 27.99288 | 1477 ft | 129 kts | 69° |
| 2026-05-07 08:32 | 36.38231 | 28.00356 | 1491 ft | 135 kts | 68° |
| 2026-05-07 08:32 | 36.38753 | 28.01304 | 1493 ft | 136 kts | 28° |
| 2026-05-07 08:32 | 36.39622 | 28.01778 | 1507 ft | 138 kts | 24° |
| 2026-05-07 08:33 | 36.40510 | 28.02277 | 1510 ft | 141 kts | 24° |
| 2026-05-07 08:33 | 36.41412 | 28.02784 | 1509 ft | 143 kts | 24° |
| 2026-05-07 08:33 | 36.42141 | 28.03571 | 1505 ft | 143 kts | 64° |
| 2026-05-07 08:33 | 36.42538 | 28.04703 | 1509 ft | 144 kts | 65° |
| 2026-05-07 08:34 | 36.42955 | 28.05839 | 1456 ft | 147 kts | 65° |
| 2026-05-07 08:34 | 36.43385 | 28.07015 | 1361 ft | 151 kts | 65° |
| 2026-05-07 08:34 | 36.43791 | 28.08149 | 1309 ft | 135 kts | 65° |
| 2026-05-07 08:34 | 36.44183 | 28.09231 | 1306 ft | 142 kts | 65° |
| 2026-05-07 08:35 | 36.44601 | 28.10377 | 1311 ft | 149 kts | 65° |
| 2026-05-07 08:35 | 36.45032 | 28.11570 | 1311 ft | 153 kts | 65° |
| 2026-05-07 08:35 | 36.45450 | 28.12801 | 1302 ft | 156 kts | 72° |
| 2026-05-07 08:35 | 36.45498 | 28.14080 | 1247 ft | 140 kts | 104° |
| 2026-05-07 08:36 | 36.44926 | 28.14985 | 1047 ft | 137 kts | 151° |
| 2026-05-07 08:36 | 36.44017 | 28.15322 | 854 ft | 137 kts | 173° |
| 2026-05-07 08:36 | 36.43157 | 28.15127 | 863 ft | 117 kts | 211° |
| 2026-05-07 08:36 | 36.42599 | 28.14410 | 720 ft | 117 kts | 236° |
| 2026-05-07 08:37 | 36.42145 | 28.13563 | 584 ft | 117 kts | 239° |
| 2026-05-07 08:37 | 36.41753 | 28.12660 | 472 ft | 120 kts | 246° |
| 2026-05-07 08:37 | 36.41439 | 28.11698 | 338 ft | 122 kts | 252° |
| 2026-05-07 08:37 | 36.41153 | 28.10724 | 160 ft | 118 kts | 252° |
| 2026-05-07 08:38 | 36.40887 | 28.09808 | 30 ft | 104 kts | 251° |
| 2026-05-07 08:38 | 36.40689 | 28.09195 | 28 ft | 39 kts | 226° |
| 2026-05-07 08:38 | 36.40600 | 28.09116 | 30 ft | 1 kts | 207° |
| 2026-05-07 08:38 | 36.40602 | 28.09117 | 26 ft | 13 kts | 208° |
| 2026-05-07 08:39 | 36.40536 | 28.09075 | 25 ft | 10 kts | 204° |
| 2026-05-07 08:39 | 36.40471 | 28.09057 | 25 ft | 10 kts | 184° |
| 2026-05-07 08:39 | 36.40405 | 28.09066 | 26 ft | 10 kts | 161° |
| 2026-05-07 08:39 | 36.40348 | 28.09092 | 26 ft | 5 kts | 154° |
| 2026-05-07 08:40 | 36.40346 | 28.09093 | 26 ft | 0 kts | 159° |